Time;durP1;ratioP1;P1;durP2;ratioP2;P2;SDS_P1;SDS_P2;PMS_P1;PMS_P2;Temp;Humidity;BMP_temperature;BMP_pressure;BME280_temperature;BME280_humidity;BME280_pressure;Samples;Min_cycle;Max_cycle;Signal;HPM_P1;HPM_P2
2022/05/22 00:01:32;;;;;;;1.90;1.20;;;;;;;12.09;74.45;95838.00;5017124;28;20234;-77
2022/05/22 00:03:57;;;;;;;1.77;1.17;;;;;;;12.10;74.30;95839.63;5016913;28;20175;-77
2022/05/22 00:06:22;;;;;;;2.43;1.20;;;;;;;12.10;74.62;95844.84;5019015;28;20206;-77
2022/05/22 00:08:48;;;;;;;3.40;1.40;;;;;;;12.03;74.69;95838.63;5018479;28;20171;-76
2022/05/22 00:11:13;;;;;;;3.50;1.30;;;;;;;12.01;74.57;95827.50;5006580;28;20180;-77
2022/05/22 00:13:38;;;;;;;3.87;1.33;;;;;;;12.00;74.79;95831.91;5017256;28;20808;-77
2022/05/22 00:18:48;;;;;;;2.10;1.20;;;;;;;11.94;75.10;95821.28;5017693;28;20186;-76
2022/05/22 00:21:13;;;;;;;1.67;1.30;;;;;;;11.91;75.37;95822.38;5019059;28;20199;-77
2022/05/22 00:23:38;;;;;;;1.80;1.20;;;;;;;11.84;75.61;95824.78;5017013;28;20171;-77
2022/05/22 00:26:04;;;;;;;1.90;1.57;;;;;;;11.82;75.90;95818.88;5016693;28;20207;-75
2022/05/22 00:28:29;;;;;;;2.47;1.20;;;;;;;11.74;76.43;95813.56;5017727;28;20210;-77
2022/05/22 00:30:54;;;;;;;0.90;0.80;;;;;;;11.74;76.21;95812.75;5002186;28;20676;-77
2022/05/22 00:33:20;;;;;;;3.43;1.60;;;;;;;11.67;76.55;95811.75;4999479;28;20187;-77
2022/05/22 00:35:45;;;;;;;3.30;1.30;;;;;;;11.64;76.66;95821.44;4996380;28;20218;-77
2022/05/22 00:38:10;;;;;;;8.10;1.40;;;;;;;11.59;76.60;95812.47;4999365;28;20198;-76
2022/05/22 00:40:36;;;;;;;2.33;1.47;;;;;;;11.59;76.34;95807.28;4997816;28;20235;-77
2022/05/22 00:43:01;;;;;;;2.00;1.10;;;;;;;11.55;76.73;95809.34;4997357;28;20203;-77
2022/05/22 00:45:27;;;;;;;4.77;1.40;;;;;;;11.52;77.15;95806.22;4980747;28;20184;-76
2022/05/22 00:47:53;;;;;;;6.30;1.20;;;;;;;11.51;76.64;95802.81;4981847;28;20183;-77
2022/05/22 00:50:18;;;;;;;2.53;1.20;;;;;;;11.50;76.95;95810.75;4999200;28;20187;-77
2022/05/22 00:52:46;;;;;;;5.43;1.30;;;;;;;11.50;76.51;95803.78;4997334;28;20240;-77
2022/05/22 00:55:15;;;;;;;1.83;1.03;;;;;;;11.54;76.69;95802.50;4999945;28;20198;-77
2022/05/22 00:57:44;;;;;;;1.93;1.23;;;;;;;11.64;76.30;95802.44;4985775;28;20206;-77
2022/05/22 01:00:21;;;;;;;3.20;1.13;;;;;;;11.60;76.43;95794.13;4985029;28;20180;-77
2022/05/22 01:05:32;;;;;;;2.63;1.50;;;;;;;11.48;77.21;95789.25;5001238;28;20231;-77
2022/05/22 01:07:57;;;;;;;5.90;1.57;;;;;;;11.40;77.62;95790.00;5034323;28;20171;-76
2022/05/22 01:10:24;;;;;;;3.90;1.27;;;;;;;11.32;77.82;95777.75;5031808;28;20684;-77
2022/05/22 01:12:50;;;;;;;2.13;1.30;;;;;;;11.34;77.83;95772.41;5032798;28;20609;-77
2022/05/22 01:15:15;;;;;;;2.77;1.60;;;;;;;11.28;78.28;95780.78;4999322;28;20188;-77
2022/05/22 01:17:44;;;;;;;2.17;1.20;;;;;;;11.26;78.29;95793.09;5000613;28;20203;-77
2022/05/22 01:20:11;;;;;;;2.63;1.20;;;;;;;11.38;77.26;95791.91;5033819;28;20176;-77
2022/05/22 01:22:36;;;;;;;5.07;1.30;;;;;;;11.42;77.21;95793.28;5033292;28;20230;-77
2022/05/22 01:25:01;;;;;;;2.90;1.07;;;;;;;11.38;77.51;95791.09;5040665;28;20199;-77
2022/05/22 01:27:27;;;;;;;2.53;1.30;;;;;;;11.53;76.71;95790.47;5020466;28;20206;-77
2022/05/22 01:30:07;;;;;;;3.57;1.20;;;;;;;11.45;77.07;95794.75;5003412;28;20698;-76
2022/05/22 01:32:34;;;;;;;3.03;1.17;;;;;;;11.47;77.15;95796.25;5020909;28;20175;-76
2022/05/22 01:34:59;;;;;;;2.97;1.43;;;;;;;11.44;77.42;95790.53;5003226;28;20187;-77
2022/05/22 01:37:24;;;;;;;2.50;1.33;;;;;;;11.46;77.58;95789.41;5020099;28;20203;-77
2022/05/22 01:39:51;;;;;;;2.70;1.20;;;;;;;11.46;77.09;95779.00;5019512;28;20198;-77
2022/05/22 01:42:16;;;;;;;3.13;1.80;;;;;;;11.46;76.72;95773.81;5020881;28;20207;-76
2022/05/22 01:44:41;;;;;;;2.60;1.30;;;;;;;11.47;76.90;95770.25;5019527;28;20229;-77
2022/05/22 01:47:07;;;;;;;2.27;1.33;;;;;;;11.37;77.50;95785.09;5020094;28;20540;-77
2022/05/22 01:49:32;;;;;;;1.67;0.90;;;;;;;11.45;77.12;95787.78;5020779;28;20648;-77
2022/05/22 01:51:57;;;;;;;2.40;1.50;;;;;;;11.47;77.15;95785.84;5021564;28;20187;-77
2022/05/22 01:54:23;;;;;;;4.20;1.43;;;;;;;11.48;76.88;95786.66;5019508;28;20256;-76
2022/05/22 01:56:48;;;;;;;3.57;1.40;;;;;;;11.49;76.95;95783.94;5019738;28;20206;-77
2022/05/22 01:59:13;;;;;;;3.87;1.30;;;;;;;11.51;77.13;95782.00;5020157;28;20175;-77
2022/05/22 02:01:38;;;;;;;1.77;1.13;;;;;;;11.37;77.55;95784.28;5019068;28;20226;-77
2022/05/22 02:04:05;;;;;;;1.67;1.20;;;;;;;11.46;77.29;95771.19;5018986;28;20661;-76
2022/05/22 02:06:30;;;;;;;2.03;1.20;;;;;;;11.45;76.82;95773.97;5018070;28;20199;-77
2022/05/22 02:08:56;;;;;;;3.07;1.30;;;;;;;11.52;76.66;95769.81;5019803;28;20183;-77
2022/05/22 02:11:21;;;;;;;2.00;1.20;;;;;;;11.52;77.01;95762.81;5019408;28;20179;-76
2022/05/22 02:13:48;;;;;;;3.80;1.20;;;;;;;11.49;77.02;95760.53;5018667;28;20195;-77
2022/05/22 02:16:14;;;;;;;2.67;1.50;;;;;;;11.49;77.31;95760.53;5019759;28;20633;-77
2022/05/22 02:18:39;;;;;;;2.53;1.20;;;;;;;11.54;76.86;95747.88;5019390;28;20180;-76
2022/05/22 02:21:05;;;;;;;1.53;1.10;;;;;;;11.52;76.96;95742.00;5020745;28;20206;-77
2022/05/22 02:23:32;;;;;;;1.77;1.53;;;;;;;11.51;77.08;95748.19;5019441;28;20206;-76
2022/05/22 02:25:57;;;;;;;3.07;1.40;;;;;;;11.53;76.74;95743.66;5018781;28;20579;-77
2022/05/22 02:28:24;;;;;;;2.57;1.10;;;;;;;11.50;76.91;95748.34;5003758;28;20180;-77
2022/05/22 02:30:52;;;;;;;2.23;1.30;;;;;;;11.48;77.12;95747.66;5019748;28;20262;-77
2022/05/22 02:33:17;;;;;;;2.90;1.37;;;;;;;11.52;76.59;95739.41;5019532;28;20182;-76
2022/05/22 02:35:43;;;;;;;3.03;1.30;;;;;;;11.60;76.47;95738.69;5019586;28;20187;-77
2022/05/22 02:38:10;;;;;;;3.37;1.30;;;;;;;11.55;76.71;95736.50;5019671;28;20186;-76
2022/05/22 02:40:37;;;;;;;3.20;1.57;;;;;;;11.52;76.80;95736.00;5003186;28;20179;-77
2022/05/22 02:43:02;;;;;;;2.77;1.20;;;;;;;11.47;76.86;95727.81;5003326;28;20215;-77
2022/05/22 02:45:30;;;;;;;2.37;1.40;;;;;;;11.49;76.96;95737.13;5020340;28;20737;-77
2022/05/22 02:47:56;;;;;;;2.17;1.43;;;;;;;11.47;76.78;95727.81;5019225;28;20179;-77
2022/05/22 02:50:23;;;;;;;3.63;1.33;;;;;;;11.52;76.66;95715.19;5003212;28;20270;-77
2022/05/22 02:52:50;;;;;;;4.27;1.50;;;;;;;11.42;77.19;95717.88;5018979;28;20181;-76
2022/05/22 02:55:16;;;;;;;2.73;1.20;;;;;;;11.40;77.47;95709.41;5018658;28;20199;-77
2022/05/22 02:57:42;;;;;;;3.63;1.20;;;;;;;11.40;77.08;95716.41;5003140;28;20199;-77
2022/05/22 03:00:11;;;;;;;3.30;1.23;;;;;;;11.36;76.87;95705.47;5019108;28;20237;-77
2022/05/22 03:02:36;;;;;;;2.90;1.60;;;;;;;11.36;76.93;95713.25;5001506;28;20273;-77
2022/05/22 03:05:02;;;;;;;4.30;1.30;;;;;;;11.33;76.71;95706.56;5018697;28;20180;-77
2022/05/22 03:07:27;;;;;;;3.20;1.50;;;;;;;11.34;76.94;95704.78;5002874;28;20566;-77
2022/05/22 03:09:52;;;;;;;4.30;1.40;;;;;;;11.17;77.72;95700.41;5019632;28;20175;-77
2022/05/22 03:12:20;;;;;;;3.17;1.37;;;;;;;11.10;77.80;95692.38;5024475;28;20202;-76
2022/05/22 03:14:56;;;;;;;2.97;1.20;;;;;;;11.20;77.22;95693.09;5018009;28;20175;-75
2022/05/22 03:17:22;;;;;;;2.17;1.10;;;;;;;11.21;77.12;95693.94;5034805;28;20256;-76
2022/05/22 03:19:47;;;;;;;2.70;1.23;;;;;;;11.21;77.37;95699.13;5035190;28;20183;-75
2022/05/22 03:22:13;;;;;;;5.93;1.43;;;;;;;11.17;77.51;95705.59;5026356;28;20393;-77
2022/05/22 03:24:39;;;;;;;2.23;1.03;;;;;;;11.18;77.21;95702.03;5018129;28;20193;-77
2022/05/22 03:27:10;;;;;;;2.13;1.33;;;;;;;11.17;77.47;95697.81;5003317;28;20195;-77
2022/05/22 03:29:39;;;;;;;1.87;1.50;;;;;;;11.15;77.57;95697.13;5019395;28;20202;-77
2022/05/22 03:32:05;;;;;;;2.30;1.30;;;;;;;11.14;77.68;95691.13;5019529;28;20185;-77
2022/05/22 03:34:30;;;;;;;2.33;1.33;;;;;;;11.28;76.94;95692.38;5002569;28;20237;-77
2022/05/22 03:36:56;;;;;;;2.20;1.10;;;;;;;11.35;76.87;95698.63;5020517;28;20199;-76
2022/05/22 03:39:22;;;;;;;3.30;1.53;;;;;;;11.46;76.07;95698.38;5019202;28;20183;-77
2022/05/22 03:41:47;;;;;;;2.83;1.30;;;;;;;11.42;76.75;95696.25;5026190;28;20584;-78
2022/05/22 03:44:13;;;;;;;3.43;1.20;;;;;;;11.39;76.90;95693.94;5026240;28;20258;-78
2022/05/22 03:46:38;;;;;;;5.27;1.30;;;;;;;11.45;76.90;95691.56;5016415;28;20205;-76
2022/05/22 03:49:03;;;;;;;3.57;1.57;;;;;;;11.40;77.18;95688.59;4995454;28;20684;-77
2022/05/22 03:51:29;;;;;;;2.73;1.23;;;;;;;11.46;76.89;95684.56;5011389;28;20648;-77
2022/05/22 03:53:54;;;;;;;2.10;1.30;;;;;;;11.31;77.47;95686.91;4994776;28;20206;-77
2022/05/22 03:56:20;;;;;;;3.23;1.33;;;;;;;11.37;77.11;95678.47;5011421;28;20305;-77
2022/05/22 03:58:46;;;;;;;1.70;1.27;;;;;;;11.53;76.77;95681.22;4994941;28;20185;-77
2022/05/22 04:01:11;;;;;;;3.63;1.50;;;;;;;12.28;74.07;95672.97;5010336;28;20715;-76
2022/05/22 04:03:38;;;;;;;3.53;1.93;;;;;;;13.57;69.15;95664.72;5011780;28;20361;-76
2022/05/22 04:06:04;;;;;;;1.77;1.00;;;;;;;14.29;64.48;95674.44;4994903;28;20616;-77
2022/05/22 04:08:30;;;;;;;2.20;1.27;;;;;;;14.06;65.28;95669.91;5011553;28;20253;-77
2022/05/22 04:10:56;;;;;;;2.87;1.40;;;;;;;13.86;66.25;95669.44;5012093;28;20270;-76
2022/05/22 04:13:21;;;;;;;4.00;1.30;;;;;;;13.24;68.42;95673.50;5012623;28;20171;-77
2022/05/22 04:15:47;;;;;;;2.77;1.10;;;;;;;13.13;69.05;95669.38;4994204;28;20574;-77
2022/05/22 04:18:13;;;;;;;3.37;1.60;;;;;;;13.04;69.19;95671.16;5012468;28;20179;-76
2022/05/22 04:20:38;;;;;;;2.07;1.07;;;;;;;13.00;69.57;95664.63;5012603;28;20182;-77
2022/05/22 04:25:56;;;;;;;2.67;1.30;;;;;;;12.89;70.55;95659.69;5010805;28;20213;-77
2022/05/22 04:28:22;;;;;;;1.70;1.30;;;;;;;12.98;70.72;95657.94;4994171;28;20265;-77
2022/05/22 04:30:47;;;;;;;1.43;1.17;;;;;;;13.07;70.60;95649.16;4994244;28;20186;-76
2022/05/22 04:33:13;;;;;;;1.73;1.10;;;;;;;13.57;68.17;95659.50;5010842;28;20172;-77
2022/05/22 04:35:38;;;;;;;3.77;1.40;;;;;;;14.38;65.39;95658.56;4993881;28;20183;-76
2022/05/22 04:38:04;;;;;;;3.67;1.20;;;;;;;14.79;63.45;95663.69;5012046;28;20229;-76
2022/05/22 04:40:29;;;;;;;3.33;1.20;;;;;;;16.52;59.34;95660.38;5011061;28;20175;-77
2022/05/22 04:42:55;;;;;;;4.28;1.23;;;;;;;16.72;57.03;95657.22;5011274;28;20298;-77
2022/05/22 04:45:20;;;;;;;1.85;1.10;;;;;;;16.59;56.54;95648.13;5012617;28;20184;-77
2022/05/22 04:47:45;;;;;;;4.68;1.15;;;;;;;16.72;56.72;95652.78;5013073;28;20206;-77
2022/05/22 04:50:12;;;;;;;3.38;1.20;;;;;;;17.39;54.41;95656.94;5012910;28;20640;-76
2022/05/22 04:52:38;;;;;;;2.08;1.23;;;;;;;17.97;52.03;95650.63;4994943;28;20521;-77
2022/05/22 04:55:05;;;;;;;2.05;1.20;;;;;;;19.03;49.57;95655.69;5012512;28;20233;-77
2022/05/22 04:57:30;;;;;;;3.70;1.20;;;;;;;18.73;49.20;95652.50;5011969;28;20734;-77
2022/05/22 04:59:56;;;;;;;2.33;1.10;;;;;;;19.89;46.41;95648.78;5012425;28;20182;-77
2022/05/22 05:02:24;;;;;;;1.50;0.98;;;;;;;20.37;44.90;95648.53;5012831;28;20199;-77
2022/05/22 05:04:54;;;;;;;2.10;1.27;;;;;;;21.21;43.50;95647.66;5012484;28;20175;-77
2022/05/22 05:07:20;;;;;;;3.00;1.40;;;;;;;20.33;45.02;95652.59;5013623;28;20206;-77
2022/05/22 05:09:45;;;;;;;2.70;1.23;;;;;;;20.50;44.55;95648.53;4997014;28;20175;-77
2022/05/22 05:12:12;;;;;;;3.85;1.42;;;;;;;21.03;43.45;95643.09;5014396;28;20548;-77
2022/05/22 05:14:37;;;;;;;2.15;1.20;;;;;;;22.22;41.03;95647.59;5014245;28;20181;-77
2022/05/22 05:17:10;;;;;;;3.22;1.05;;;;;;;23.26;37.34;95645.06;5013404;28;20192;-77
2022/05/22 05:19:35;;;;;;;2.35;1.33;;;;;;;22.32;39.87;95647.91;5014896;28;20171;-76
2022/05/22 05:22:00;;;;;;;3.80;1.20;;;;;;;22.99;38.50;95661.28;5014779;28;20236;-77
2022/05/22 05:24:26;;;;;;;2.72;0.90;;;;;;;23.99;36.78;95647.47;5012936;28;20190;-76
2022/05/22 05:26:54;;;;;;;2.33;1.00;;;;;;;23.50;37.48;95648.56;5014466;28;20195;-76
2022/05/22 05:29:19;;;;;;;3.22;1.00;;;;;;;24.26;36.06;95639.88;5014873;28;20178;-77
2022/05/22 05:31:44;;;;;;;3.60;1.50;;;;;;;25.33;33.34;95642.94;5014612;28;20167;-77
2022/05/22 05:34:09;;;;;;;1.85;0.95;;;;;;;24.52;35.46;95638.63;5016302;28;20171;-77
2022/05/22 05:36:35;;;;;;;2.47;0.93;;;;;;;24.47;34.99;95634.03;5015527;28;20559;-77
2022/05/22 05:39:01;;;;;;;2.10;0.93;;;;;;;25.55;33.83;95645.75;4996746;28;20215;-77
2022/05/22 05:41:27;;;;;;;2.92;1.20;;;;;;;24.58;35.62;95649.13;5014051;28;20206;-77
2022/05/22 05:43:52;;;;;;;2.65;1.20;;;;;;;24.14;36.73;95649.69;4997671;28;20189;-77
2022/05/22 05:46:17;;;;;;;2.00;1.10;;;;;;;25.13;34.17;95648.69;5014434;28;20203;-77
2022/05/22 05:48:42;;;;;;;2.25;1.05;;;;;;;24.63;34.93;95640.44;5014296;28;20548;-76
2022/05/22 05:51:08;;;;;;;3.00;1.00;;;;;;;26.75;31.49;95643.66;4998081;28;20187;-77
2022/05/22 05:53:33;;;;;;;3.38;1.20;;;;;;;26.32;32.17;95639.81;5013951;28;20225;-75
2022/05/22 05:56:04;;;;;;;1.45;0.88;;;;;;;26.32;31.82;95644.34;5013469;28;20269;-76
2022/05/22 05:58:29;;;;;;;2.42;1.10;;;;;;;26.91;30.37;95647.31;4997851;28;20179;-77
2022/05/22 06:00:55;;;;;;;3.42;1.40;;;;;;;25.16;33.35;95634.09;5014822;28;20676;-76
2022/05/22 06:03:20;;;;;;;3.60;1.20;;;;;;;25.52;32.17;95637.44;5013029;28;20223;-77
2022/05/22 06:05:45;;;;;;;2.17;1.10;;;;;;;27.18;31.05;95642.06;5013604;28;20203;-77
2022/05/22 06:08:10;;;;;;;2.42;1.10;;;;;;;27.15;30.12;95638.06;5016397;28;20592;-80
2022/05/22 06:10:37;;;;;;;1.75;1.00;;;;;;;27.04;30.50;95642.47;5014717;28;20705;-75
2022/05/22 06:13:02;;;;;;;3.67;1.30;;;;;;;28.08;28.34;95627.22;4990230;28;20183;-77
2022/05/22 06:15:28;;;;;;;2.67;1.02;;;;;;;25.56;33.15;95636.72;5002137;28;20295;-77
2022/05/22 06:17:56;;;;;;;2.83;1.10;;;;;;;28.84;28.41;95637.59;4993027;28;20215;-78
2022/05/22 06:20:22;;;;;;;1.98;1.30;;;;;;;26.33;31.98;95645.94;4991257;28;20172;-76
2022/05/22 06:22:47;;;;;;;3.60;1.40;;;;;;;25.62;33.13;95638.44;4993182;28;20211;-76
2022/05/22 06:25:14;;;;;;;1.73;0.90;;;;;;;26.43;31.13;95651.47;4992286;28;20203;-76
2022/05/22 06:27:40;;;;;;;3.40;1.10;;;;;;;26.80;30.85;95649.84;4992969;28;20224;-76
2022/05/22 06:30:06;;;;;;;2.53;1.10;;;;;;;26.52;32.27;95644.69;4993152;28;20202;-76
2022/05/22 06:32:32;;;;;;;4.28;1.23;;;;;;;27.66;29.70;95641.28;4994459;28;20230;-76
2022/05/22 06:34:58;;;;;;;2.03;1.10;;;;;;;27.85;28.90;95639.84;4975644;28;20756;-77
2022/05/22 06:37:24;;;;;;;2.45;1.25;;;;;;;27.99;29.21;95644.75;4993173;28;20200;-76
2022/05/22 06:39:52;;;;;;;1.45;1.15;;;;;;;28.83;27.47;95655.50;4993515;28;20251;-76
2022/05/22 06:42:29;;;;;;;2.92;0.93;;;;;;;27.08;30.34;95651.56;4993329;28;20278;-77
2022/05/22 06:45:15;;;;;;;1.58;1.00;;;;;;;27.28;29.15;95656.31;4992979;28;20198;-77
2022/05/22 06:47:42;;;;;;;2.85;1.25;;;;;;;26.97;30.59;95652.47;4993617;28;20242;-76
2022/05/22 06:50:11;;;;;;;2.25;1.23;;;;;;;27.05;30.48;95654.72;4977041;28;20180;-77
2022/05/22 06:52:36;;;;;;;2.10;1.13;;;;;;;27.76;29.10;95654.72;4992305;28;20557;-75
2022/05/22 06:55:03;;;;;;;3.35;1.08;;;;;;;27.58;29.05;95657.72;4994109;28;20178;-77
2022/05/22 06:57:28;;;;;;;1.55;1.13;;;;;;;27.26;29.23;95661.09;4992443;28;20200;-77
2022/05/22 06:59:55;;;;;;;2.67;1.05;;;;;;;27.16;29.54;95650.31;5001392;28;20194;-76
2022/05/22 07:02:21;;;;;;;2.20;1.00;;;;;;;27.33;28.68;95653.72;4995719;28;20700;-76
2022/05/22 07:04:47;;;;;;;2.78;1.00;;;;;;;26.79;29.76;95653.56;5010658;28;20202;-77
2022/05/22 07:07:12;;;;;;;1.17;0.95;;;;;;;27.86;27.90;95654.00;5012496;28;20221;-77
2022/05/22 07:09:37;;;;;;;2.35;0.98;;;;;;;27.53;28.79;95652.31;5012809;28;20179;-77
2022/05/22 07:12:12;;;;;;;1.30;0.93;;;;;;;28.29;27.52;95655.72;5015054;28;20178;-77
2022/05/22 07:14:38;;;;;;;3.97;1.40;;;;;;;27.87;30.76;95656.41;5015397;28;20179;-78
2022/05/22 07:17:05;;;;;;;1.60;1.20;;;;;;;27.69;31.03;95648.78;5014256;28;20283;-78
2022/05/22 07:19:34;;;;;;;2.63;1.30;;;;;;;26.34;34.46;95644.94;5014397;28;20175;-78
2022/05/22 07:22:00;;;;;;;1.90;1.23;;;;;;;25.63;35.89;95640.03;5008519;28;20214;-76
2022/05/22 07:24:25;;;;;;;2.80;1.25;;;;;;;24.71;37.03;95633.97;5006630;28;20210;-76
2022/05/22 07:26:51;;;;;;;1.38;1.27;;;;;;;25.57;36.07;95635.69;5003840;28;20199;-77
2022/05/22 07:29:16;;;;;;;2.55;1.20;;;;;;;25.45;35.71;95637.59;5012328;28;20167;-77
2022/05/22 07:31:41;;;;;;;2.70;1.48;;;;;;;24.77;37.81;95633.03;5014381;28;20171;-77
2022/05/22 07:34:07;;;;;;;1.55;1.10;;;;;;;24.44;37.24;95633.66;5012144;28;20171;-77
2022/05/22 07:36:32;;;;;;;1.33;1.15;;;;;;;23.95;37.87;95638.38;5015236;28;20197;-77
2022/05/22 07:38:57;;;;;;;4.68;1.42;;;;;;;24.26;37.31;95638.03;5011755;28;20171;-77
2022/05/22 07:41:23;;;;;;;1.38;1.02;;;;;;;24.24;37.21;95628.69;4995432;28;20573;-77
2022/05/22 07:43:48;;;;;;;1.35;1.10;;;;;;;24.50;36.67;95619.47;5012442;28;20259;-76
2022/05/22 07:46:15;;;;;;;1.20;1.10;;;;;;;25.65;34.48;95629.16;5014705;28;20234;-79
2022/05/22 07:48:41;;;;;;;2.65;1.40;;;;;;;24.76;36.15;95626.13;4998278;28;20274;-77
2022/05/22 07:51:08;;;;;;;2.88;1.08;;;;;;;24.27;38.28;95626.38;5011230;28;20179;-77
2022/05/22 07:53:33;;;;;;;1.48;0.90;;;;;;;25.18;34.39;95623.25;5010180;28;20190;-75
2022/05/22 07:55:59;;;;;;;1.80;1.20;;;;;;;24.83;35.70;95621.50;5010046;28;20225;-76
2022/05/22 07:58:27;;;;;;;1.55;1.00;;;;;;;25.46;33.39;95619.78;5016081;28;20625;-76
2022/05/22 08:00:53;;;;;;;1.50;1.00;;;;;;;25.26;32.24;95625.53;5018594;28;20175;-75
2022/05/22 08:03:19;;;;;;;2.38;1.02;;;;;;;25.14;31.43;95610.44;5013294;28;20230;-78
2022/05/22 08:05:45;;;;;;;1.30;1.17;;;;;;;24.71;32.19;95607.41;5015230;28;20222;-78
2022/05/22 08:08:10;;;;;;;2.35;0.90;;;;;;;24.37;33.47;95611.72;5000891;28;20191;-78
2022/05/22 08:10:37;;;;;;;2.80;1.27;;;;;;;22.54;35.47;95605.97;4999075;28;20230;-78
2022/05/22 08:13:06;;;;;;;2.38;1.10;;;;;;;22.73;34.72;95612.06;5001143;28;20172;-75
2022/05/22 08:15:33;;;;;;;2.60;0.90;;;;;;;22.50;34.87;95607.44;5013568;28;20282;-77
2022/05/22 08:17:59;;;;;;;1.70;0.90;;;;;;;22.20;36.46;95602.06;5012058;28;20182;-79
2022/05/22 08:20:25;;;;;;;2.70;1.10;;;;;;;22.34;36.70;95600.88;4993760;28;20210;-80
2022/05/22 08:22:59;;;;;;;2.45;0.98;;;;;;;22.94;36.15;95596.78;4995186;28;20210;-79
2022/05/22 08:25:26;;;;;;;1.58;1.02;;;;;;;22.77;35.81;95597.34;4994650;28;20195;-80
2022/05/22 08:27:52;;;;;;;2.67;1.20;;;;;;;23.04;35.95;95597.84;5012738;28;20179;-78
2022/05/22 08:30:19;;;;;;;2.42;1.15;;;;;;;22.52;38.02;95601.91;5016015;28;20187;-77
2022/05/22 08:32:45;;;;;;;1.42;0.82;;;;;;;22.49;38.24;95597.88;5033340;28;20183;-79
2022/05/22 08:35:14;;;;;;;3.60;1.10;;;;;;;21.12;42.31;95586.38;5024591;28;20190;-79
2022/05/22 08:37:40;;;;;;;3.78;1.25;;;;;;;22.03;40.12;95596.47;5011122;28;20254;-77
2022/05/22 08:40:06;;;;;;;2.08;1.30;;;;;;;21.90;40.04;95591.28;4995378;28;20229;-77
2022/05/22 08:42:41;;;;;;;1.92;1.00;;;;;;;21.37;41.65;95581.13;5010860;28;20269;-77
2022/05/22 08:45:16;;;;;;;1.52;1.05;;;;;;;21.68;41.31;95587.44;5010076;28;20197;-77
2022/05/22 08:48:00;;;;;;;2.72;1.20;;;;;;;21.82;40.35;95573.09;4994799;28;20574;-78
2022/05/22 08:50:29;;;;;;;1.88;1.08;;;;;;;21.24;42.19;95575.94;5011051;28;20262;-77
2022/05/22 08:53:01;;;;;;;3.17;1.33;;;;;;;21.09;43.06;95575.41;4994070;28;20182;-76
2022/05/22 08:58:56;;;;;;;1.95;1.20;;;;;;;21.08;44.58;95577.25;5009285;28;20182;-76
2022/05/22 09:01:10;;;;;;;1.58;1.17;;;;;;;20.77;44.79;95566.66;5010078;28;20265;-76
2022/05/22 09:03:44;;;;;;;2.97;1.40;;;;;;;20.21;44.45;95575.13;4993150;28;20193;-77
2022/05/22 09:06:10;;;;;;;3.28;1.48;;;;;;;20.05;46.79;95566.66;5009527;28;20691;-77
2022/05/22 09:08:45;;;;;;;3.45;1.23;;;;;;;20.41;44.20;95560.09;5009490;28;20294;-77
2022/05/22 09:11:32;;;;;;;2.97;1.20;;;;;;;20.44;45.86;95557.03;5009453;28;20230;-77
2022/05/22 09:14:23;;;;;;;3.17;1.65;;;;;;;20.65;44.14;95556.75;4992657;28;20262;-77
2022/05/22 09:16:59;;;;;;;1.90;1.27;;;;;;;20.48;43.65;95560.06;5013641;28;20241;-77
2022/05/22 09:19:43;;;;;;;4.80;1.20;;;;;;;20.99;42.15;95553.94;5013936;28;20678;-78
2022/05/22 09:22:21;;;;;;;3.97;1.35;;;;;;;20.90;43.19;95554.19;4997296;28;20213;-78
2022/05/22 09:25:17;;;;;;;3.22;0.85;;;;;;;21.61;40.44;95554.97;5012985;28;20190;-77
2022/05/22 09:28:28;;;;;;;2.35;1.17;;;;;;;20.79;42.98;95556.69;5013855;28;20247;-77
2022/05/22 09:31:03;;;;;;;1.67;1.00;;;;;;;21.49;41.96;95553.03;4986718;28;20195;-78
2022/05/22 09:34:04;;;;;;;1.25;0.82;;;;;;;22.16;41.19;95553.25;4997881;28;20225;-78
2022/05/22 09:37:02;;;;;;;1.42;0.85;;;;;;;22.54;39.95;95546.94;5015220;28;20199;-78
2022/05/22 09:39:28;;;;;;;1.58;1.30;;;;;;;21.60;41.02;95550.72;5015339;28;20175;-78
2022/05/22 09:42:03;;;;;;;2.92;1.08;;;;;;;21.24;41.49;95549.53;5014016;28;20207;-78
2022/05/22 09:44:40;;;;;;;2.60;1.20;;;;;;;21.71;41.29;95550.00;5013888;28;20175;-76
2022/05/22 09:47:26;;;;;;;1.55;1.05;;;;;;;21.95;41.42;95543.06;4996965;28;20421;-77
2022/05/22 09:50:20;;;;;;;1.33;1.08;;;;;;;22.37;39.04;95546.72;5013747;28;20186;-78
2022/05/22 09:53:01;;;;;;;1.35;0.90;;;;;;;22.47;39.51;95543.56;4998465;28;20171;-78
2022/05/22 09:55:45;;;;;;;2.38;1.05;;;;;;;22.17;40.26;95536.34;4997568;28;20712;-77
2022/05/22 09:58:30;;;;;;;1.02;0.93;;;;;;;21.12;42.00;95540.69;5014631;28;20179;-76
2022/05/22 10:01:12;;;;;;;2.17;1.20;;;;;;;21.07;42.20;95533.38;5013138;28;20179;-77
2022/05/22 10:04:06;;;;;;;1.45;0.77;;;;;;;21.36;42.49;95534.63;5014237;28;20194;-78
2022/05/22 10:06:40;;;;;;;1.33;1.00;;;;;;;20.98;42.13;95529.38;4997140;28;20199;-76
2022/05/22 10:09:46;;;;;;;4.82;1.30;;;;;;;21.16;43.12;95532.09;5013813;28;20175;-76
2022/05/22 10:12:27;;;;;;;2.63;1.25;;;;;;;21.14;42.13;95525.44;5012570;28;20175;-76
2022/05/22 10:15:21;;;;;;;3.30;1.30;;;;;;;21.27;42.01;95527.19;4995292;28;20215;-76
2022/05/22 10:18:12;;;;;;;2.75;1.40;;;;;;;21.36;42.46;95525.88;5012391;28;20237;-76
2022/05/22 10:20:56;;;;;;;2.33;1.00;;;;;;;21.05;42.68;95524.88;5011386;28;20183;-76
2022/05/22 10:23:30;;;;;;;3.42;1.10;;;;;;;21.16;44.64;95526.81;4995500;28;20315;-76
2022/05/22 10:26:12;;;;;;;1.40;1.20;;;;;;;20.95;42.27;95521.91;5010959;28;20225;-76
2022/05/22 10:28:47;;;;;;;2.10;1.08;;;;;;;20.67;45.19;95514.31;5011733;28;20266;-77
2022/05/22 10:31:18;;;;;;;1.23;1.13;;;;;;;20.47;43.92;95511.78;4995977;28;20644;-77
2022/05/22 10:34:13;;;;;;;2.40;1.27;;;;;;;20.93;44.13;95506.25;5011782;28;20674;-77
2022/05/22 10:36:42;;;;;;;3.55;1.40;;;;;;;21.36;43.27;95502.13;4995762;28;20199;-77
2022/05/22 10:39:10;;;;;;;2.53;1.33;;;;;;;21.42;45.44;95501.25;5012366;28;20514;-77
2022/05/22 10:44:29;;;;;;;4.10;1.33;;;;;;;21.36;45.25;95494.19;5023987;28;20265;-76
2022/05/22 10:47:02;;;;;;;2.15;1.10;;;;;;;22.05;43.60;95487.84;5016250;28;20203;-78
2022/05/22 10:49:42;;;;;;;1.42;1.15;;;;;;;22.21;42.24;95487.28;5032049;28;20175;-77
2022/05/22 10:52:10;;;;;;;1.58;1.10;;;;;;;22.53;40.19;95476.53;5033385;28;20181;-77
2022/05/22 10:54:50;;;;;;;2.85;1.45;;;;;;;22.38;42.25;95479.56;5026053;28;20213;-78
2022/05/22 10:57:18;;;;;;;2.25;1.30;;;;;;;22.82;41.32;95478.38;5017113;28;20267;-78
2022/05/22 10:59:44;;;;;;;2.97;1.52;;;;;;;22.73;41.27;95469.13;5016420;28;20191;-78
2022/05/22 11:02:21;;;;;;;2.08;1.15;;;;;;;22.69;40.99;95472.44;5015137;28;20268;-79
2022/05/22 11:04:47;;;;;;;1.83;1.40;;;;;;;23.18;40.25;95471.34;4999229;28;20187;-78
2022/05/22 11:07:13;;;;;;;4.47;1.30;;;;;;;23.02;41.34;95466.69;5016554;28;20559;-78
2022/05/22 11:09:51;;;;;;;1.90;1.38;;;;;;;23.64;39.74;95467.13;5014775;28;20187;-78
2022/05/22 11:12:27;;;;;;;2.28;1.50;;;;;;;23.62;38.87;95462.06;5017139;28;20171;-78
2022/05/22 11:15:06;;;;;;;3.53;1.40;;;;;;;23.63;38.33;95463.69;4997664;28;20661;-78
2022/05/22 11:17:31;;;;;;;2.35;1.60;;;;;;;23.91;37.05;95459.50;4995662;28;20245;-77
2022/05/22 11:19:57;;;;;;;3.83;1.10;;;;;;;23.28;39.44;95450.38;5012334;28;20266;-77
2022/05/22 11:22:41;;;;;;;4.30;1.50;;;;;;;23.42;40.11;95450.97;5011267;28;20199;-76
2022/05/22 11:25:35;;;;;;;1.45;1.25;;;;;;;23.44;40.11;95460.31;5011876;28;20191;-76
2022/05/22 11:28:30;;;;;;;1.90;1.40;;;;;;;23.52;38.89;95453.06;5012676;28;20715;-76
2022/05/22 11:31:23;;;;;;;3.20;1.48;;;;;;;24.06;38.50;95451.06;5004218;28;20195;-78
2022/05/22 11:34:30;;;;;;;2.35;1.30;;;;;;;23.59;38.81;95459.03;4993793;28;20199;-77
2022/05/22 11:37:05;;;;;;;2.55;1.63;;;;;;;24.54;37.86;95451.50;5012913;28;20195;-77
2022/05/22 11:39:36;;;;;;;3.42;1.52;;;;;;;24.29;38.52;95445.69;5012102;28;20261;-77
2022/05/22 11:42:14;;;;;;;7.07;4.25;;;;;;;23.98;37.73;95439.78;5013848;28;20203;-78
2022/05/22 11:45:01;;;;;;;1.75;1.15;;;;;;;23.79;37.54;95445.47;5012605;28;20175;-77
2022/05/22 11:47:51;;;;;;;4.30;3.00;;;;;;;23.16;39.21;95436.34;5011743;28;20625;-78
2022/05/22 11:50:44;;;;;;;2.33;1.50;;;;;;;23.56;39.21;95441.75;4965906;28;20195;-78
2022/05/22 11:53:47;;;;;;;1.20;1.10;;;;;;;24.00;37.95;95436.88;5013002;28;20177;-78
2022/05/22 11:56:45;;;;;;;4.20;1.48;;;;;;;24.43;37.24;95435.66;5013358;28;20194;-78
2022/05/22 11:59:24;;;;;;;4.03;1.23;;;;;;;24.14;36.78;95429.50;5013407;28;20190;-78
2022/05/22 12:01:58;;;;;;;4.05;1.58;;;;;;;24.09;37.75;95432.03;4994593;28;20207;-78